createdAt,value
2023-03-29T00:01:35.036Z,6.10
2023-03-29T00:04:04.634Z,6.10
2023-03-29T00:06:39.513Z,6.10
2023-03-29T00:09:13.534Z,6.10
2023-03-29T00:11:47.500Z,6.10
2023-03-29T00:14:21.530Z,6.20
2023-03-29T00:16:48.908Z,6.20
2023-03-29T00:19:22.546Z,6.10
2023-03-29T00:21:59.535Z,6.20
2023-03-29T00:24:32.549Z,6.10
2023-03-29T00:26:59.329Z,6.10
2023-03-29T00:29:32.688Z,6.10
2023-03-29T00:31:59.905Z,6.00
2023-03-29T00:34:42.535Z,6.00
2023-03-29T00:37:10.005Z,6.00
2023-03-29T00:39:37.023Z,6.00
2023-03-29T00:42:10.538Z,6.00
2023-03-29T00:44:52.729Z,6.10
2023-03-29T00:47:32.842Z,6.10
2023-03-29T00:50:06.279Z,6.10
2023-03-29T00:52:41.572Z,6.10
2023-03-29T00:55:22.593Z,6.10
2023-03-29T00:57:58.681Z,6.10
2023-03-29T01:00:31.872Z,6.20
2023-03-29T01:03:08.783Z,6.20
2023-03-29T01:05:40.520Z,6.20
2023-03-29T01:08:24.633Z,6.20
2023-03-29T01:11:00.855Z,6.30
2023-03-29T01:13:45.644Z,6.20
2023-03-29T01:16:20.716Z,6.30
2023-03-29T01:18:48.255Z,6.30
2023-03-29T01:21:34.736Z,6.30
2023-03-29T01:24:48.622Z,6.30
2023-03-29T01:27:33.503Z,6.30
2023-03-29T01:30:10.648Z,6.40
2023-03-29T01:32:50.720Z,6.40
2023-03-29T01:35:17.495Z,6.30
2023-03-29T01:37:56.673Z,6.40
2023-03-29T01:40:30.650Z,6.40
2023-03-29T01:43:18.915Z,6.40
2023-03-29T01:45:56.637Z,6.40
2023-03-29T01:48:27.603Z,6.40
2023-03-29T01:51:07.706Z,6.40
2023-03-29T01:54:16.602Z,6.40
2023-03-29T01:56:52.696Z,6.50
2023-03-29T01:59:28.388Z,6.50
2023-03-29T02:02:12.708Z,6.50
2023-03-29T02:04:54.711Z,6.50
2023-03-29T02:07:26.331Z,6.50
2023-03-29T02:10:00.714Z,6.50
2023-03-29T02:12:27.491Z,6.60
2023-03-29T02:15:01.722Z,6.50
2023-03-29T02:17:30.764Z,6.50
2023-03-29T02:20:25.715Z,6.50
2023-03-29T02:23:04.651Z,6.60
2023-03-29T02:25:39.093Z,6.60
2023-03-29T02:28:06.972Z,6.60
2023-03-29T02:31:04.984Z,6.60
2023-03-29T02:33:43.342Z,6.60
2023-03-29T02:36:24.821Z,6.60
2023-03-29T02:38:52.802Z,6.60
2023-03-29T02:41:26.754Z,6.60
2023-03-29T02:44:02.773Z,6.60
2023-03-29T02:46:36.815Z,6.70
2023-03-29T02:49:05.164Z,6.70
2023-03-29T02:51:41.784Z,6.70
2023-03-29T02:54:20.513Z,6.70
2023-03-29T02:57:02.838Z,6.70
2023-03-29T02:59:30.395Z,6.70
2023-03-29T03:01:57.269Z,6.70
2023-03-29T03:04:31.820Z,6.70
2023-03-29T03:06:58.762Z,6.70
2023-03-29T03:09:31.785Z,6.70
2023-03-29T03:12:04.789Z,6.70
2023-03-29T03:14:38.374Z,6.70
2023-03-29T03:17:11.791Z,6.70
2023-03-29T03:19:45.885Z,6.70
2023-03-29T03:22:12.959Z,6.70
2023-03-29T03:24:49.846Z,6.70
2023-03-29T03:27:16.600Z,6.70
2023-03-29T03:29:43.999Z,6.70
2023-03-29T03:32:18.794Z,6.70
2023-03-29T03:34:45.753Z,6.70
2023-03-29T03:37:18.833Z,6.70
2023-03-29T03:39:52.880Z,6.70
2023-03-29T03:42:21.598Z,6.70
2023-03-29T03:44:54.843Z,6.80
2023-03-29T03:47:27.995Z,6.80
2023-03-29T03:50:01.874Z,6.70
2023-03-29T03:52:35.938Z,6.70
2023-03-29T03:55:09.998Z,6.80
2023-03-29T03:57:40.074Z,6.80
2023-03-29T04:00:26.884Z,6.70
2023-03-29T04:02:56.477Z,6.80
2023-03-29T04:05:29.933Z,6.80
2023-03-29T04:08:04.913Z,6.80
2023-03-29T04:10:37.840Z,6.80
2023-03-29T04:13:11.944Z,6.80
2023-03-29T04:15:47.929Z,6.80
2023-03-29T04:18:28.010Z,6.80
2023-03-29T04:20:54.855Z,6.80
2023-03-29T04:23:28.892Z,6.80
2023-03-29T04:25:56.657Z,6.80
2023-03-29T04:28:29.896Z,6.80
2023-03-29T04:30:56.810Z,6.80
2023-03-29T04:33:30.164Z,6.80
2023-03-29T04:35:58.338Z,6.80
2023-03-29T04:38:26.862Z,6.80
2023-03-29T04:41:12.942Z,6.80
2023-03-29T04:43:41.376Z,6.90
2023-03-29T04:46:15.962Z,6.80
2023-03-29T04:48:43.521Z,6.90
2023-03-29T04:51:16.966Z,6.90
2023-03-29T04:53:50.982Z,6.90
2023-03-29T04:56:24.930Z,6.90
2023-03-29T04:58:51.829Z,6.90
2023-03-29T05:01:25.088Z,6.90
2023-03-29T05:03:52.507Z,6.90
2023-03-29T05:06:25.977Z,6.90
2023-03-29T05:08:52.850Z,6.90
2023-03-29T05:11:20.346Z,6.90
2023-03-29T05:13:53.996Z,7.00
2023-03-29T05:16:30.304Z,7.00
2023-03-29T05:19:04.027Z,7.00
2023-03-29T05:21:30.895Z,7.00
2023-03-29T05:23:57.714Z,7.00
2023-03-29T05:26:30.995Z,7.00
2023-03-29T05:29:03.979Z,7.00
2023-03-29T05:31:30.959Z,7.10
2023-03-29T05:34:05.035Z,7.10
2023-03-29T05:36:39.254Z,7.10
2023-03-29T05:39:06.751Z,7.10
2023-03-29T05:41:40.997Z,7.10
2023-03-29T05:44:08.380Z,7.10
2023-03-29T05:46:42.005Z,7.20
2023-03-29T05:49:08.828Z,7.20
2023-03-29T05:51:42.112Z,7.20
2023-03-29T05:54:17.031Z,7.20
2023-03-29T05:56:44.009Z,7.30
2023-03-29T05:59:11.370Z,7.30
2023-03-29T06:01:46.037Z,7.30
2023-03-29T06:04:21.132Z,7.30
2023-03-29T06:06:55.548Z,7.40
2023-03-29T06:09:29.058Z,7.40
2023-03-29T06:12:04.124Z,7.40
2023-03-29T06:14:31.218Z,7.40
2023-03-29T06:17:01.746Z,7.50
2023-03-29T06:19:36.177Z,7.50
2023-03-29T06:22:03.281Z,7.60
2023-03-29T06:24:37.156Z,7.60
2023-03-29T06:27:10.279Z,7.70
2023-03-29T06:29:37.076Z,7.70
2023-03-29T06:32:03.943Z,7.80
2023-03-29T06:34:38.549Z,7.80
2023-03-29T06:37:06.007Z,7.80
2023-03-29T06:39:39.164Z,7.80
2023-03-29T06:42:21.139Z,7.90
2023-03-29T06:44:56.131Z,7.90
2023-03-29T06:47:29.081Z,8.00
2023-03-29T06:50:04.138Z,8.10
2023-03-29T06:52:37.156Z,8.10
2023-03-29T06:55:07.524Z,8.20
2023-03-29T06:57:34.546Z,8.20
2023-03-29T07:00:08.154Z,8.30
2023-03-29T07:02:42.200Z,8.30
2023-03-29T07:05:20.333Z,8.40
2023-03-29T07:07:57.174Z,8.40
2023-03-29T07:10:39.208Z,8.40
2023-03-29T07:13:08.730Z,8.40
2023-03-29T07:15:42.375Z,8.50
2023-03-29T07:18:10.474Z,8.50
2023-03-29T07:20:38.837Z,8.60
2023-03-29T07:23:14.215Z,8.70
2023-03-29T07:25:47.274Z,8.70
2023-03-29T07:28:16.524Z,8.80
2023-03-29T07:30:43.337Z,8.90
2023-03-29T07:33:21.462Z,9.00
2023-03-29T07:35:48.514Z,9.10
2023-03-29T07:38:15.736Z,9.20
2023-03-29T07:40:49.530Z,9.30
2023-03-29T07:43:24.181Z,9.30
2023-03-29T07:45:59.244Z,9.40
2023-03-29T07:48:33.253Z,9.40
2023-03-29T07:51:00.378Z,9.40
2023-03-29T07:53:36.250Z,9.40
2023-03-29T07:56:03.362Z,9.40
2023-03-29T07:58:37.304Z,9.40
2023-03-29T08:01:04.605Z,9.40
2023-03-29T08:03:31.744Z,9.40
2023-03-29T08:06:09.267Z,9.40
2023-03-29T08:08:36.667Z,9.50
2023-03-29T08:11:10.584Z,9.50
2023-03-29T08:13:37.467Z,9.60
2023-03-29T08:16:05.892Z,9.60
2023-03-29T08:18:39.255Z,9.70
2023-03-29T08:21:13.313Z,9.70
2023-03-29T08:23:40.212Z,9.80
2023-03-29T08:26:09.756Z,9.90
2023-03-29T08:28:45.611Z,9.90
2023-03-29T08:31:12.949Z,10.00
2023-03-29T08:33:39.977Z,10.10
2023-03-29T08:36:13.363Z,10.10
2023-03-29T08:38:45.402Z,10.10
2023-03-29T08:41:51.418Z,10.20
2023-03-29T08:44:54.644Z,10.30
2023-03-29T08:47:42.457Z,10.40
2023-03-29T08:50:12.320Z,10.40
2023-03-29T08:52:51.703Z,10.60
2023-03-29T08:55:31.895Z,10.60
2023-03-29T08:58:08.402Z,10.60
2023-03-29T09:00:52.388Z,10.60
2023-03-29T09:03:39.479Z,10.60
2023-03-29T09:06:13.646Z,10.80
2023-03-29T09:08:50.443Z,11.00
2023-03-29T09:11:32.709Z,11.20
2023-03-29T09:14:33.409Z,11.30
2023-03-29T09:17:19.552Z,11.30
2023-03-29T09:20:13.035Z,11.30
2023-03-29T09:23:07.686Z,11.30
2023-03-29T09:25:53.485Z,11.40
2023-03-29T09:28:44.396Z,11.40
2023-03-29T09:31:36.516Z,11.40
2023-03-29T09:34:19.468Z,11.20
2023-03-29T09:36:59.377Z,11.20
2023-03-29T09:39:28.230Z,11.20
2023-03-29T09:42:06.424Z,11.20
2023-03-29T09:44:57.360Z,11.30
2023-03-29T09:47:42.515Z,11.30
2023-03-29T09:50:31.547Z,11.30
2023-03-29T09:53:06.455Z,11.30
2023-03-29T09:55:36.273Z,11.40
2023-03-29T09:58:22.477Z,11.40
2023-03-29T10:00:50.073Z,11.50
2023-03-29T10:03:28.544Z,11.60
2023-03-29T10:06:05.475Z,11.80
2023-03-29T10:08:50.747Z,11.90
2023-03-29T10:11:30.455Z,11.80
2023-03-29T10:14:02.588Z,11.70
2023-03-29T10:16:41.583Z,11.60
2023-03-29T10:19:30.970Z,11.50
2023-03-29T10:22:07.464Z,11.50
2023-03-29T10:24:34.396Z,11.60
2023-03-29T10:27:11.477Z,11.70
2023-03-29T10:29:42.246Z,11.60
2023-03-29T10:32:30.564Z,11.60
2023-03-29T10:35:21.430Z,11.60
2023-03-29T10:38:01.521Z,11.60
2023-03-29T10:40:32.537Z,11.50
2023-03-29T10:43:38.745Z,11.50
2023-03-29T10:46:19.799Z,11.60
2023-03-29T10:48:57.794Z,11.60
2023-03-29T10:51:27.787Z,11.60
2023-03-29T10:54:01.895Z,11.60
2023-03-29T10:56:42.429Z,11.70
2023-03-29T10:59:30.821Z,11.80
2023-03-29T11:02:09.803Z,11.80
2023-03-29T11:04:56.759Z,11.60
2023-03-29T11:07:37.818Z,11.50
2023-03-29T11:10:50.502Z,11.50
2023-03-29T11:13:51.904Z,11.60
2023-03-29T11:16:59.704Z,11.80
2023-03-29T11:20:04.992Z,12.10
2023-03-29T11:22:54.255Z,12.20
2023-03-29T11:25:32.821Z,12.30
2023-03-29T11:28:28.646Z,12.30
2023-03-29T11:31:32.970Z,12.30
2023-03-29T11:34:25.854Z,12.30
2023-03-29T11:37:07.891Z,12.30
2023-03-29T11:39:40.867Z,12.30
2023-03-29T11:42:14.477Z,12.40
2023-03-29T11:44:51.673Z,12.40
2023-03-29T11:47:21.470Z,12.40
2023-03-29T11:50:03.892Z,12.40
2023-03-29T11:52:42.927Z,12.30
2023-03-29T11:55:24.839Z,12.30
2023-03-29T11:58:12.905Z,12.40
2023-03-29T12:01:02.146Z,12.40
2023-03-29T12:03:53.010Z,12.40
2023-03-29T12:06:39.929Z,12.30
2023-03-29T12:09:25.217Z,12.10
2023-03-29T12:12:29.959Z,11.90
2023-03-29T12:15:29.956Z,11.80
2023-03-29T12:18:26.958Z,11.70
2023-03-29T12:21:06.079Z,11.60
2023-03-29T12:23:39.933Z,11.50
2023-03-29T12:26:19.556Z,11.50
2023-03-29T12:29:29.960Z,11.50
2023-03-29T12:32:30.956Z,11.50
2023-03-29T12:35:21.964Z,11.60
2023-03-29T12:38:24.326Z,11.60
2023-03-29T12:41:23.965Z,11.70
2023-03-29T12:43:57.991Z,11.90
2023-03-29T12:46:27.552Z,11.90
2023-03-29T12:49:12.034Z,12.10
2023-03-29T12:51:41.886Z,12.30
2023-03-29T12:54:28.248Z,12.40
2023-03-29T12:57:05.050Z,12.60
2023-03-29T12:59:49.999Z,12.70
2023-03-29T13:02:25.153Z,12.80
2023-03-29T13:04:57.523Z,12.90
2023-03-29T13:07:33.012Z,13.00
2023-03-29T13:10:03.400Z,13.10
2023-03-29T13:12:50.039Z,13.10
2023-03-29T13:15:22.989Z,13.20
2023-03-29T13:18:05.075Z,13.30
2023-03-29T13:21:26.030Z,13.40
2023-03-29T13:24:05.536Z,13.60
2023-03-29T13:26:47.052Z,13.80
2023-03-29T13:29:20.000Z,13.90
2023-03-29T13:32:16.197Z,13.80
2023-03-29T13:35:04.022Z,13.70
2023-03-29T13:37:40.008Z,13.80
2023-03-29T13:40:39.054Z,13.80
2023-03-29T13:43:19.145Z,13.80
2023-03-29T13:46:11.107Z,14.00
2023-03-29T13:48:37.910Z,14.10
2023-03-29T13:51:45.083Z,14.40
2023-03-29T13:54:27.383Z,14.50
2023-03-29T13:57:20.169Z,14.50
2023-03-29T14:00:12.186Z,14.50
2023-03-29T14:02:56.125Z,14.50
2023-03-29T14:05:38.059Z,14.50
2023-03-29T14:08:25.193Z,14.50
2023-03-29T14:10:59.104Z,14.50
2023-03-29T14:13:27.418Z,14.60
2023-03-29T14:16:10.172Z,14.70
2023-03-29T14:18:40.515Z,14.80
2023-03-29T14:21:15.134Z,15.10
2023-03-29T14:23:59.105Z,15.20
2023-03-29T14:26:31.625Z,15.40
2023-03-29T14:29:08.321Z,15.50
2023-03-29T14:31:37.905Z,15.50
2023-03-29T14:34:14.092Z,15.40
2023-03-29T14:36:42.956Z,15.30
2023-03-29T14:39:28.154Z,15.20
2023-03-29T14:41:59.263Z,15.20
2023-03-29T14:44:36.193Z,15.30
2023-03-29T14:47:04.798Z,15.30
2023-03-29T14:49:39.182Z,15.40
2023-03-29T14:52:06.536Z,15.30
2023-03-29T14:54:36.121Z,15.30
2023-03-29T14:57:15.211Z,15.30
2023-03-29T14:59:50.140Z,15.30
2023-03-29T15:02:38.344Z,15.30
2023-03-29T15:05:19.978Z,15.40
2023-03-29T15:07:54.219Z,15.40
2023-03-29T15:10:21.135Z,15.20
2023-03-29T15:12:55.247Z,15.10
2023-03-29T15:15:25.694Z,15.10
2023-03-29T15:17:59.194Z,15.10
2023-03-29T15:20:29.042Z,15.10
2023-03-29T15:23:21.207Z,15.00
2023-03-29T15:25:54.373Z,14.90
2023-03-29T15:28:40.216Z,14.80
2023-03-29T15:31:17.647Z,14.80
2023-03-29T15:33:51.292Z,14.70
2023-03-29T15:36:18.450Z,14.70
2023-03-29T15:38:56.243Z,14.70
2023-03-29T15:41:34.308Z,14.60
2023-03-29T15:44:08.253Z,14.60
2023-03-29T15:46:35.080Z,14.50
2023-03-29T15:49:08.220Z,14.50
2023-03-29T15:51:37.678Z,14.50
2023-03-29T15:54:11.242Z,14.40
2023-03-29T15:56:53.351Z,14.40
2023-03-29T15:59:27.238Z,14.40
2023-03-29T16:02:04.272Z,14.30
2023-03-29T16:04:38.242Z,14.20
2023-03-29T16:07:13.405Z,14.20
2023-03-29T16:09:47.298Z,14.10
2023-03-29T16:12:22.253Z,14.10
2023-03-29T16:14:49.048Z,14.10
2023-03-29T16:17:22.330Z,14.20
2023-03-29T16:19:49.192Z,14.20
2023-03-29T16:22:22.291Z,14.20
2023-03-29T16:24:49.135Z,14.10
2023-03-29T16:27:24.345Z,14.10
2023-03-29T16:29:51.249Z,14.00
2023-03-29T16:32:18.287Z,13.90
2023-03-29T16:34:51.359Z,13.90
2023-03-29T16:37:24.264Z,13.90
2023-03-29T16:39:57.316Z,13.80
2023-03-29T16:42:24.123Z,13.80
2023-03-29T16:44:57.320Z,13.80
2023-03-29T16:47:30.377Z,13.80
2023-03-29T16:50:03.479Z,13.70
2023-03-29T16:52:31.223Z,13.80
2023-03-29T16:54:58.026Z,13.70
2023-03-29T16:57:33.342Z,13.70
2023-03-29T17:00:00.359Z,13.70
2023-03-29T17:02:27.353Z,13.70
2023-03-29T17:05:00.366Z,13.70
2023-03-29T17:07:34.388Z,13.70
2023-03-29T17:10:04.506Z,13.70
2023-03-29T17:12:38.386Z,13.70
2023-03-29T17:15:07.641Z,13.70
2023-03-29T17:17:41.449Z,13.70
2023-03-29T17:20:11.962Z,13.70
2023-03-29T17:22:52.363Z,13.60
2023-03-29T17:25:19.215Z,13.60
2023-03-29T17:27:54.368Z,13.60
2023-03-29T17:30:21.510Z,13.60
2023-03-29T17:33:01.365Z,13.60
2023-03-29T17:35:28.769Z,13.60
2023-03-29T17:38:02.461Z,13.60
2023-03-29T17:40:35.447Z,13.50
2023-03-29T17:43:08.389Z,13.50
2023-03-29T17:45:42.437Z,13.40
2023-03-29T17:48:10.509Z,13.40
2023-03-29T17:50:44.458Z,13.30
2023-03-29T17:53:18.437Z,13.30
2023-03-29T17:55:53.472Z,13.20
2023-03-29T17:58:27.480Z,13.10
2023-03-29T18:00:54.407Z,13.00
2023-03-29T18:03:28.495Z,13.00
2023-03-29T18:05:56.571Z,13.00
2023-03-29T18:08:30.468Z,12.90
2023-03-29T18:11:16.081Z,12.90
2023-03-29T18:13:50.534Z,12.80
2023-03-29T18:16:18.027Z,12.80
2023-03-29T18:18:52.473Z,12.70
2023-03-29T18:21:26.473Z,12.70
2023-03-29T18:24:00.692Z,12.60
2023-03-29T18:26:28.484Z,12.60
2023-03-29T18:29:02.486Z,12.60
2023-03-29T18:31:35.635Z,12.60
2023-03-29T18:34:09.497Z,12.60
2023-03-29T18:36:36.999Z,12.60
2023-03-29T18:39:13.490Z,12.60
2023-03-29T18:41:46.468Z,12.60
2023-03-29T18:44:17.630Z,12.50
2023-03-29T18:46:54.525Z,12.50
2023-03-29T18:49:27.556Z,12.50
2023-03-29T18:52:02.534Z,12.50
2023-03-29T18:54:31.357Z,12.40
2023-03-29T18:57:00.484Z,12.50
2023-03-29T18:59:33.561Z,12.50
2023-03-29T19:02:07.588Z,12.40
2023-03-29T19:04:36.611Z,12.40
2023-03-29T19:07:03.582Z,12.40
2023-03-29T19:09:38.568Z,12.40
2023-03-29T19:12:05.641Z,12.40
2023-03-29T19:14:38.708Z,12.40
2023-03-29T19:17:11.593Z,12.40
2023-03-29T19:19:38.564Z,12.40
2023-03-29T19:22:11.623Z,12.40
2023-03-29T19:24:38.777Z,12.40
2023-03-29T19:27:06.596Z,12.40
2023-03-29T19:29:40.574Z,12.40
2023-03-29T19:32:07.403Z,12.40
2023-03-29T19:34:41.633Z,12.40
2023-03-29T19:37:14.661Z,12.40
2023-03-29T19:39:41.568Z,12.40
2023-03-29T19:42:08.470Z,12.30
2023-03-29T19:44:44.594Z,12.40
2023-03-29T19:47:28.681Z,12.40
2023-03-29T19:49:58.457Z,12.40
2023-03-29T19:52:34.600Z,12.40
2023-03-29T19:55:02.094Z,12.40
2023-03-29T19:57:29.021Z,12.40
2023-03-29T20:00:02.693Z,12.30
2023-03-29T20:02:29.544Z,12.30
2023-03-29T20:05:09.632Z,12.30
2023-03-29T20:07:49.638Z,12.30
2023-03-29T20:10:16.800Z,12.30
2023-03-29T20:12:54.671Z,12.20
2023-03-29T20:15:25.415Z,12.20
2023-03-29T20:18:00.748Z,12.20
2023-03-29T20:20:34.684Z,12.20
2023-03-29T20:23:05.431Z,12.20
2023-03-29T20:25:41.665Z,12.30
2023-03-29T20:28:15.691Z,12.30
2023-03-29T20:30:42.545Z,12.30
2023-03-29T20:33:15.703Z,12.30
2023-03-29T20:35:44.957Z,12.40
2023-03-29T20:38:18.647Z,12.40
2023-03-29T20:40:45.466Z,12.40
2023-03-29T20:43:18.236Z,12.50
2023-03-29T20:45:55.698Z,12.40
2023-03-29T20:48:37.714Z,12.40
2023-03-29T20:51:10.137Z,12.40
2023-03-29T20:53:43.718Z,12.30
2023-03-29T20:56:16.653Z,12.30
2023-03-29T20:58:43.832Z,12.30
2023-03-29T21:01:20.838Z,12.30
2023-03-29T21:03:52.614Z,12.30
2023-03-29T21:06:26.726Z,12.30
2023-03-29T21:08:53.558Z,12.30
2023-03-29T21:11:27.738Z,12.20
2023-03-29T21:13:55.133Z,12.30
2023-03-29T21:16:28.864Z,12.30
2023-03-29T21:18:55.976Z,12.30
2023-03-29T21:21:29.810Z,12.30
2023-03-29T21:23:57.705Z,12.20
2023-03-29T21:26:30.850Z,12.20
2023-03-29T21:29:03.785Z,12.20
2023-03-29T21:31:37.826Z,12.20
2023-03-29T21:34:04.742Z,12.10
2023-03-29T21:36:38.758Z,12.10
2023-03-29T21:39:05.758Z,12.10
2023-03-29T21:41:38.785Z,12.10
2023-03-29T21:44:05.706Z,12.10
2023-03-29T21:46:38.872Z,12.10
2023-03-29T21:49:05.805Z,12.20
2023-03-29T21:51:38.838Z,12.20
2023-03-29T21:54:05.818Z,12.30
2023-03-29T21:56:32.634Z,12.40
2023-03-29T21:59:05.811Z,12.30
2023-03-29T22:01:38.840Z,12.40
2023-03-29T22:04:05.783Z,12.40
2023-03-29T22:06:38.830Z,12.50
2023-03-29T22:09:06.092Z,12.50
2023-03-29T22:11:40.824Z,12.50
2023-03-29T22:14:08.338Z,12.50
2023-03-29T22:16:43.854Z,12.50
2023-03-29T22:19:11.732Z,12.60
2023-03-29T22:21:44.854Z,12.60
2023-03-29T22:24:11.710Z,12.60
2023-03-29T22:26:38.616Z,12.60
2023-03-29T22:29:12.816Z,12.70
2023-03-29T22:31:45.882Z,12.70
2023-03-29T22:34:18.875Z,12.70
2023-03-29T22:36:51.875Z,12.70
2023-03-29T22:39:18.692Z,12.70
2023-03-29T22:41:53.209Z,12.70
2023-03-29T22:44:20.313Z,12.70
2023-03-29T22:46:47.115Z,12.70
2023-03-29T22:49:20.868Z,12.70
2023-03-29T22:51:53.904Z,12.60
2023-03-29T22:54:20.731Z,12.60
2023-03-29T22:56:53.930Z,12.60
2023-03-29T22:59:21.336Z,12.50
2023-03-29T23:01:54.885Z,12.50
2023-03-29T23:04:24.770Z,12.50
2023-03-29T23:06:57.884Z,12.50
2023-03-29T23:09:24.774Z,12.50
2023-03-29T23:11:51.533Z,12.50
2023-03-29T23:14:25.889Z,12.50
2023-03-29T23:16:52.956Z,12.50
2023-03-29T23:19:25.942Z,12.50
2023-03-29T23:21:52.817Z,12.50
2023-03-29T23:24:25.962Z,12.50
2023-03-29T23:26:52.760Z,12.60
2023-03-29T23:29:26.908Z,12.60
2023-03-29T23:31:56.868Z,12.60
2023-03-29T23:34:29.927Z,12.60
2023-03-29T23:36:56.756Z,12.60
2023-03-29T23:39:29.959Z,12.60
2023-03-29T23:41:57.001Z,12.60
2023-03-29T23:44:29.978Z,12.60
2023-03-29T23:46:56.775Z,12.60
2023-03-29T23:49:30.987Z,12.70
2023-03-29T23:52:00.087Z,12.60
2023-03-29T23:54:33.994Z,12.70
2023-03-29T23:57:01.116Z,12.70
2023-03-29T23:59:35.953Z,12.70
